Time,TemperatureF,DewpointF,PressureIn,WindDirection,WindDirectionDegrees,WindSpeedMPH,WindSpeedGustMPH,Humidity,HourlyPrecipIn,Conditions,Clouds,dailyrainin,SoftwareType,DateUTC
2013-03-08 00:06:00,26.9,23.0,30.41,NNW,334,0.0,-999.0,85,-99.99,,,0.00,weatherlink.com 1.10,2013-03-08 05:06:00,
2013-03-08 00:21:00,26.3,22.0,30.41,NNW,335,0.0,-999.0,85,-99.99,,,0.00,weatherlink.com 1.10,2013-03-08 05:21:00,
2013-03-08 00:36:00,25.7,22.0,30.41,NNW,336,0.0,-999.0,86,-99.99,,,0.00,weatherlink.com 1.10,2013-03-08 05:36:00,
2013-03-08 00:51:00,25.1,22.0,30.42,NNW,336,0.0,-999.0,87,-99.99,,,0.00,weatherlink.com 1.10,2013-03-08 05:51:00,
2013-03-08 01:06:00,24.5,22.0,30.41,NNW,336,0.0,-999.0,88,-99.99,,,0.00,weatherlink.com 1.10,2013-03-08 06:06:00,
2013-03-08 01:21:00,24.2,21.0,30.41,NNW,334,0.0,-999.0,88,-99.99,,,0.00,weatherlink.com 1.10,2013-03-08 06:21:00,
2013-03-08 01:36:00,23.9,21.0,30.41,NNW,335,0.0,-999.0,89,-99.99,,,0.00,weatherlink.com 1.10,2013-03-08 06:36:00,
2013-03-08 01:51:00,23.6,21.0,30.42,NNW,336,0.0,-999.0,89,-99.99,,,0.00,weatherlink.com 1.10,2013-03-08 06:51:00,
2013-03-08 02:06:00,23.4,21.0,30.42,NNW,334,0.0,-999.0,89,-99.99,,,0.00,weatherlink.com 1.10,2013-03-08 07:06:00,
2013-03-08 02:21:00,23.4,21.0,30.42,NNW,335,0.0,-999.0,90,-99.99,,,0.00,weatherlink.com 1.10,2013-03-08 07:21:00,
2013-03-08 02:36:00,23.0,21.0,30.42,NNW,335,0.0,-999.0,90,-99.99,,,0.00,weatherlink.com 1.10,2013-03-08 07:36:00,
2013-03-08 02:52:00,22.7,20.0,30.43,NNW,334,0.0,-999.0,90,-99.99,,,0.00,weatherlink.com 1.10,2013-03-08 07:52:00,
2013-03-08 03:07:00,22.5,20.0,30.43,NNW,335,0.0,-999.0,90,-99.99,,,0.00,weatherlink.com 1.10,2013-03-08 08:07:00,
2013-03-08 03:22:00,22.3,20.0,30.43,NNW,336,0.0,-999.0,91,-99.99,,,0.00,weatherlink.com 1.10,2013-03-08 08:22:00,
2013-03-08 03:37:00,22.1,20.0,30.43,NNW,335,0.0,-999.0,91,-99.99,,,0.00,weatherlink.com 1.10,2013-03-08 08:37:00,
2013-03-08 03:52:00,21.8,20.0,30.43,NNW,334,0.0,-999.0,91,-99.99,,,0.00,weatherlink.com 1.10,2013-03-08 08:52:00,
2013-03-08 04:07:00,21.5,19.0,30.43,NNW,336,0.0,-999.0,91,-99.99,,,0.00,weatherlink.com 1.10,2013-03-08 09:07:00,
2013-03-08 04:22:00,21.1,19.0,30.44,NNW,335,1.0,-999.0,91,-99.99,,,0.00,weatherlink.com 1.10,2013-03-08 09:22:00,
2013-03-08 04:37:00,21.0,19.0,30.45,NNW,335,0.0,-999.0,92,-99.99,,,0.00,weatherlink.com 1.10,2013-03-08 09:37:00,
2013-03-08 04:52:00,20.8,19.0,30.44,NNW,335,0.0,-999.0,92,-99.99,,,0.00,weatherlink.com 1.10,2013-03-08 09:52:00,
2013-03-08 05:07:00,20.8,19.0,30.44,NNW,335,0.0,-999.0,92,-99.99,,,0.00,weatherlink.com 1.10,2013-03-08 10:07:00,
2013-03-08 05:22:00,21.6,20.0,30.44,NNW,335,2.0,-999.0,92,-99.99,,,0.00,weatherlink.com 1.10,2013-03-08 10:22:00,
2013-03-08 05:38:00,21.5,20.0,30.45,NNW,335,0.0,-999.0,92,-99.99,,,0.00,weatherlink.com 1.10,2013-03-08 10:38:00,
2013-03-08 05:53:00,21.3,19.0,30.45,NNW,335,0.0,-999.0,92,-99.99,,,0.00,weatherlink.com 1.10,2013-03-08 10:53:00,
2013-03-08 06:08:00,21.0,19.0,30.45,NNW,335,0.0,-999.0,92,-99.99,,,0.00,weatherlink.com 1.10,2013-03-08 11:08:00,
2013-03-08 06:23:00,20.4,18.0,30.46,NNW,335,0.0,-999.0,91,-99.99,,,0.00,weatherlink.com 1.10,2013-03-08 11:23:00,
2013-03-08 06:38:00,20.2,18.0,30.46,NNW,335,0.0,-999.0,92,-99.99,,,0.00,weatherlink.com 1.10,2013-03-08 11:38:00,
2013-03-08 06:53:00,20.2,18.0,30.46,NNW,335,0.0,-999.0,92,-99.99,,,0.00,weatherlink.com 1.10,2013-03-08 11:53:00,
2013-03-08 07:08:00,19.8,18.0,30.47,NNW,335,0.0,-999.0,92,-99.99,,,0.00,weatherlink.com 1.10,2013-03-08 12:08:00,
2013-03-08 07:23:00,20.0,18.0,30.47,NNW,335,0.0,-999.0,92,-99.99,,,0.00,weatherlink.com 1.10,2013-03-08 12:23:00,
2013-03-08 07:38:00,20.7,19.0,30.48,NNW,334,0.0,-999.0,92,-99.99,,,0.00,weatherlink.com 1.10,2013-03-08 12:38:00,
2013-03-08 07:53:00,22.1,20.0,30.48,NNW,335,0.0,-999.0,93,-99.99,,,0.00,weatherlink.com 1.10,2013-03-08 12:53:00,
2013-03-08 08:08:00,24.7,23.0,30.48,NNW,335,2.0,-999.0,93,-99.99,,,0.00,weatherlink.com 1.10,2013-03-08 13:08:00,
2013-03-08 08:24:00,27.0,25.0,30.49,NNW,335,1.0,-999.0,90,-99.99,,,0.00,weatherlink.com 1.10,2013-03-08 13:24:00,
2013-03-08 08:39:00,27.9,23.0,30.49,NE,56,0.0,-999.0,83,-99.99,,,0.00,weatherlink.com 1.10,2013-03-08 13:39:00,
2013-03-08 08:54:00,28.3,23.0,30.49,ENE,58,0.0,-999.0,81,-99.99,,,0.00,weatherlink.com 1.10,2013-03-08 13:54:00,
2013-03-08 09:09:00,28.2,23.0,30.49,ENE,68,2.0,-999.0,82,-99.99,,,0.00,weatherlink.com 1.10,2013-03-08 14:09:00,
2013-03-08 09:24:00,28.4,23.0,30.50,ENE,74,0.0,-999.0,80,-99.99,,,0.00,weatherlink.com 1.10,2013-03-08 14:24:00,
2013-03-08 09:39:00,29.9,24.0,30.50,ENE,76,4.0,-999.0,78,-99.99,,,0.00,weatherlink.com 1.10,2013-03-08 14:39:00,
2013-03-08 09:54:00,30.5,24.0,30.49,ENE,75,0.0,-999.0,77,-99.99,,,0.00,weatherlink.com 1.10,2013-03-08 14:54:00,
2013-03-08 10:09:00,30.6,25.0,30.50,East,84,0.0,-999.0,78,-99.99,,,0.00,weatherlink.com 1.10,2013-03-08 15:09:00,
2013-03-08 10:24:00,31.4,24.0,30.50,East,86,0.0,-999.0,75,-99.99,,,0.00,weatherlink.com 1.10,2013-03-08 15:24:00,
2013-03-08 10:39:00,32.0,24.0,30.50,East,88,0.0,-999.0,73,-99.99,,,0.00,weatherlink.com 1.10,2013-03-08 15:39:00,
2013-03-08 10:55:00,32.3,25.0,30.50,East,88,0.0,-999.0,73,-99.99,,,0.00,weatherlink.com 1.10,2013-03-08 15:55:00,
2013-03-08 11:10:00,33.3,24.0,30.50,East,88,0.0,-999.0,70,-99.99,,,0.00,weatherlink.com 1.10,2013-03-08 16:10:00,
2013-03-08 11:25:00,33.9,24.0,30.50,East,90,1.0,-999.0,68,-99.99,,,0.00,weatherlink.com 1.10,2013-03-08 16:25:00,
2013-03-08 11:40:00,36.3,26.0,30.50,East,91,1.0,-999.0,66,-99.99,,,0.00,weatherlink.com 1.10,2013-03-08 16:40:00,
2013-03-08 11:55:00,36.9,25.0,30.49,East,98,0.0,-999.0,63,-99.99,,,0.00,weatherlink.com 1.10,2013-03-08 16:55:00,
2013-03-08 12:10:00,36.3,25.0,30.49,East,101,1.0,-999.0,63,-99.99,,,0.00,weatherlink.com 1.10,2013-03-08 17:10:00,
2013-03-08 12:25:00,37.3,25.0,30.49,East,101,0.0,-999.0,61,-99.99,,,0.00,weatherlink.com 1.10,2013-03-08 17:25:00,
2013-03-08 12:40:00,38.2,25.0,30.49,ESE,109,0.0,-999.0,60,-99.99,,,0.00,weatherlink.com 1.10,2013-03-08 17:40:00,
2013-03-08 12:55:00,37.5,23.0,30.48,ESE,109,0.0,-999.0,57,-99.99,,,0.00,weatherlink.com 1.10,2013-03-08 17:55:00,
2013-03-08 13:10:00,39.7,24.0,30.48,ESE,109,0.0,-999.0,54,-99.99,,,0.00,weatherlink.com 1.10,2013-03-08 18:10:00,
2013-03-08 13:26:00,39.9,24.0,30.47,ESE,115,0.0,-999.0,54,-99.99,,,0.00,weatherlink.com 1.10,2013-03-08 18:26:00,
2013-03-08 13:41:00,39.3,25.0,30.46,ESE,114,5.0,-999.0,56,-99.99,,,0.00,weatherlink.com 1.10,2013-03-08 18:41:00,
2013-03-08 13:56:00,38.7,24.0,30.46,ESE,116,0.0,-999.0,57,-99.99,,,0.00,weatherlink.com 1.10,2013-03-08 18:56:00,
2013-03-08 14:11:00,40.0,24.0,30.46,SSE,163,1.0,-999.0,54,-99.99,,,0.00,weatherlink.com 1.10,2013-03-08 19:11:00,
2013-03-08 14:26:00,40.5,26.0,30.45,South,182,0.0,-999.0,56,-99.99,,,0.00,weatherlink.com 1.10,2013-03-08 19:26:00,
2013-03-08 14:41:00,38.9,25.0,30.45,SSE,148,0.0,-999.0,59,-99.99,,,0.00,weatherlink.com 1.10,2013-03-08 19:41:00,
2013-03-08 14:56:00,38.6,24.0,30.44,SW,228,0.0,-999.0,55,-99.99,,,0.00,weatherlink.com 1.10,2013-03-08 19:56:00,
2013-03-08 15:11:00,39.2,25.0,30.44,ESE,112,2.0,-999.0,57,-99.99,,,0.00,weatherlink.com 1.10,2013-03-08 20:11:00,
2013-03-08 15:26:00,40.4,25.0,30.44,SE,131,2.0,-999.0,54,-99.99,,,0.00,weatherlink.com 1.10,2013-03-08 20:26:00,
2013-03-08 15:41:00,40.5,24.0,30.44,South,177,1.0,-999.0,52,-99.99,,,0.00,weatherlink.com 1.10,2013-03-08 20:41:00,
2013-03-08 15:56:00,39.0,24.0,30.43,South,169,0.0,-999.0,55,-99.99,,,0.00,weatherlink.com 1.10,2013-03-08 20:56:00,
2013-03-08 16:11:00,38.6,24.0,30.43,SE,136,5.0,-999.0,56,-99.99,,,0.00,weatherlink.com 1.10,2013-03-08 21:11:00,
2013-03-08 16:26:00,38.2,24.0,30.42,ESE,115,0.0,-999.0,57,-99.99,,,0.00,weatherlink.com 1.10,2013-03-08 21:26:00,
2013-03-08 16:42:00,38.3,24.0,30.42,ESE,110,1.0,-999.0,56,-99.99,,,0.00,weatherlink.com 1.10,2013-03-08 21:42:00,
2013-03-08 16:57:00,38.9,25.0,30.42,ESE,110,0.0,-999.0,57,-99.99,,,0.00,weatherlink.com 1.10,2013-03-08 21:57:00,
2013-03-08 17:12:00,38.1,24.0,30.42,ESE,111,0.0,-999.0,57,-99.99,,,0.00,weatherlink.com 1.10,2013-03-08 22:12:00,
2013-03-08 17:27:00,39.5,25.0,30.42,ESE,111,0.0,-999.0,56,-99.99,,,0.00,weatherlink.com 1.10,2013-03-08 22:27:00,
2013-03-08 17:42:00,40.3,25.0,30.42,ESE,111,0.0,-999.0,55,-99.99,,,0.00,weatherlink.com 1.10,2013-03-08 22:42:00,
2013-03-08 17:57:00,38.7,24.0,30.41,ESE,111,0.0,-999.0,56,-99.99,,,0.00,weatherlink.com 1.10,2013-03-08 22:57:00,
2013-03-08 18:12:00,37.2,24.0,30.40,ESE,112,0.0,-999.0,60,-99.99,,,0.00,weatherlink.com 1.10,2013-03-08 23:12:00,
2013-03-08 18:27:00,36.6,25.0,30.41,ESE,112,0.0,-999.0,62,-99.99,,,0.00,weatherlink.com 1.10,2013-03-08 23:27:00,
2013-03-08 18:42:00,35.7,24.0,30.40,ESE,111,0.0,-999.0,63,-99.99,,,0.00,weatherlink.com 1.10,2013-03-08 23:42:00,
2013-03-08 18:57:00,35.2,24.0,30.41,ESE,112,0.0,-999.0,64,-99.99,,,0.00,weatherlink.com 1.10,2013-03-08 23:57:00,
2013-03-08 19:12:00,34.2,23.0,30.41,ESE,111,0.0,-999.0,65,-99.99,,,0.00,weatherlink.com 1.10,2013-03-09 00:12:00,
2013-03-08 19:27:00,33.4,24.0,30.41,ESE,111,0.0,-999.0,68,-99.99,,,0.00,weatherlink.com 1.10,2013-03-09 00:27:00,
2013-03-08 19:42:00,33.1,24.0,30.42,ESE,111,0.0,-999.0,70,-99.99,,,0.00,weatherlink.com 1.10,2013-03-09 00:42:00,
2013-03-08 19:57:00,32.6,24.0,30.41,ESE,111,0.0,-999.0,70,-99.99,,,0.00,weatherlink.com 1.10,2013-03-09 00:57:00,
2013-03-08 20:13:00,32.4,24.0,30.41,ESE,112,0.0,-999.0,70,-99.99,,,0.00,weatherlink.com 1.10,2013-03-09 01:13:00,
2013-03-08 20:28:00,32.6,24.0,30.41,ESE,111,0.0,-999.0,70,-99.99,,,0.00,weatherlink.com 1.10,2013-03-09 01:28:00,
2013-03-08 20:43:00,32.1,23.0,30.41,ESE,111,0.0,-999.0,70,-99.99,,,0.00,weatherlink.com 1.10,2013-03-09 01:43:00,
2013-03-08 20:58:00,31.5,23.0,30.42,ESE,111,0.0,-999.0,71,-99.99,,,0.00,weatherlink.com 1.10,2013-03-09 01:58:00,
2013-03-08 21:13:00,31.0,23.0,30.41,ESE,111,0.0,-999.0,72,-99.99,,,0.00,weatherlink.com 1.10,2013-03-09 02:13:00,
2013-03-08 21:28:00,31.0,23.0,30.42,SE,142,0.0,-999.0,72,-99.99,,,0.00,weatherlink.com 1.10,2013-03-09 02:28:00,
2013-03-08 21:43:00,30.2,23.0,30.41,SE,142,0.0,-999.0,73,-99.99,,,0.00,weatherlink.com 1.10,2013-03-09 02:43:00,
2013-03-08 21:58:00,30.5,23.0,30.41,SE,142,0.0,-999.0,73,-99.99,,,0.00,weatherlink.com 1.10,2013-03-09 02:58:00,
2013-03-08 22:13:00,30.4,23.0,30.40,SE,142,0.0,-999.0,73,-99.99,,,0.00,weatherlink.com 1.10,2013-03-09 03:13:00,
2013-03-08 22:28:00,30.0,23.0,30.40,SE,142,0.0,-999.0,74,-99.99,,,0.00,weatherlink.com 1.10,2013-03-09 03:28:00,
2013-03-08 22:43:00,29.9,23.0,30.40,SE,142,0.0,-999.0,74,-99.99,,,0.00,weatherlink.com 1.10,2013-03-09 03:43:00,
2013-03-08 22:58:00,29.7,22.0,30.40,SE,142,0.0,-999.0,74,-99.99,,,0.00,weatherlink.com 1.10,2013-03-09 03:58:00,
2013-03-08 23:13:00,29.2,22.0,30.41,SE,142,0.0,-999.0,75,-99.99,,,0.00,weatherlink.com 1.10,2013-03-09 04:13:00,
2013-03-08 23:29:00,29.1,22.0,30.40,SE,142,0.0,-999.0,76,-99.99,,,0.00,weatherlink.com 1.10,2013-03-09 04:29:00,
2013-03-08 23:44:00,29.1,22.0,30.40,SE,139,0.0,-999.0,76,-99.99,,,0.00,weatherlink.com 1.10,2013-03-09 04:44:00,
2013-03-08 23:59:00,28.6,22.0,30.39,SE,139,0.0,-999.0,76,-99.99,,,0.00,weatherlink.com 1.10,2013-03-09 04:59:00,